createdAt,value
2023-03-06T00:02:10.432Z,5.09
2023-03-06T00:04:37.431Z,5.03
2023-03-06T00:07:04.444Z,5.01
2023-03-06T00:09:31.378Z,4.94
2023-03-06T00:11:58.410Z,4.89
2023-03-06T00:14:25.423Z,4.79
2023-03-06T00:16:58.670Z,4.70
2023-03-06T00:19:25.797Z,4.62
2023-03-06T00:21:52.778Z,4.52
2023-03-06T00:24:19.726Z,4.44
2023-03-06T00:26:46.726Z,4.37
2023-03-06T00:29:13.828Z,4.33
2023-03-06T00:31:40.956Z,4.35
2023-03-06T00:34:09.504Z,4.34
2023-03-06T00:36:36.440Z,4.22
2023-03-06T00:39:04.245Z,4.15
2023-03-06T00:41:31.234Z,4.12
2023-03-06T00:43:58.163Z,4.12
2023-03-06T00:46:25.229Z,4.14
2023-03-06T00:48:52.160Z,4.08
2023-03-06T00:51:22.896Z,4.04
2023-03-06T00:53:50.108Z,4.03
2023-03-06T00:56:19.955Z,4.01
2023-03-06T00:58:48.095Z,3.95
2023-03-06T01:01:15.138Z,3.91
2023-03-06T01:03:42.112Z,3.87
2023-03-06T01:06:09.057Z,3.74
2023-03-06T01:08:37.340Z,3.71
2023-03-06T01:11:04.347Z,3.71
2023-03-06T01:13:31.288Z,3.71
2023-03-06T01:16:06.523Z,3.68
2023-03-06T01:18:33.308Z,3.56
2023-03-06T01:21:02.156Z,3.43
2023-03-06T01:23:29.085Z,3.37
2023-03-06T01:25:57.672Z,3.31
2023-03-06T01:28:25.022Z,3.36
2023-03-06T01:30:52.296Z,3.35
2023-03-06T01:33:19.331Z,3.29
2023-03-06T01:35:46.405Z,3.29
2023-03-06T01:38:13.870Z,3.29
2023-03-06T01:40:40.884Z,3.31
2023-03-06T01:43:26.830Z,3.36
2023-03-06T01:46:27.793Z,3.36
2023-03-06T01:48:57.715Z,3.29
2023-03-06T01:51:28.604Z,3.27
2023-03-06T01:53:56.899Z,3.27
2023-03-06T01:56:24.917Z,3.25
2023-03-06T01:58:53.881Z,3.24
2023-03-06T02:01:21.527Z,3.20
2023-03-06T02:03:50.218Z,3.16
2023-03-06T02:06:19.825Z,3.06
2023-03-06T02:08:48.059Z,3.00
2023-03-06T02:11:17.352Z,3.00
2023-03-06T02:13:47.827Z,2.99
2023-03-06T02:16:17.621Z,2.97
2023-03-06T02:18:46.950Z,2.99
2023-03-06T02:21:21.644Z,2.99
2023-03-06T02:23:58.050Z,2.97
2023-03-06T02:26:28.331Z,2.99
2023-03-06T02:28:57.405Z,2.94
2023-03-06T02:31:27.273Z,2.88
2023-03-06T02:34:02.609Z,2.77
2023-03-06T02:36:29.900Z,2.69
2023-03-06T02:38:57.950Z,2.63
2023-03-06T02:41:26.827Z,2.59
2023-03-06T02:43:53.892Z,2.63
2023-03-06T02:46:20.961Z,2.59
2023-03-06T02:48:47.910Z,2.54
2023-03-06T02:51:14.899Z,2.53
2023-03-06T02:53:41.814Z,2.52
2023-03-06T02:56:09.011Z,2.46
2023-03-06T02:58:37.348Z,2.46
2023-03-06T03:01:04.906Z,2.48
2023-03-06T03:03:33.175Z,2.44
2023-03-06T03:06:00.742Z,2.44
2023-03-06T03:08:31.864Z,2.47
2023-03-06T03:11:01.972Z,2.48
2023-03-06T03:13:37.639Z,2.49
2023-03-06T03:16:09.101Z,2.49
2023-03-06T03:18:36.195Z,2.41
2023-03-06T03:21:08.213Z,2.36
2023-03-06T03:23:35.236Z,2.36
2023-03-06T03:26:06.969Z,2.35
2023-03-06T03:28:35.147Z,2.29
2023-03-06T03:31:05.626Z,2.31
2023-03-06T03:33:32.766Z,2.36
2023-03-06T03:36:01.540Z,2.43
2023-03-06T03:38:29.309Z,2.50
2023-03-06T03:40:56.319Z,2.60
2023-03-06T03:43:26.704Z,2.70
2023-03-06T03:45:55.040Z,2.73
2023-03-06T03:48:26.833Z,2.76
2023-03-06T03:50:54.254Z,2.74
2023-03-06T03:53:23.784Z,2.74
2023-03-06T03:55:51.008Z,2.72
2023-03-06T03:58:20.412Z,2.72
2023-03-06T04:00:48.190Z,2.77
2023-03-06T04:03:15.526Z,2.76
2023-03-06T04:05:46.216Z,2.73
2023-03-06T04:08:15.848Z,2.71
2023-03-06T04:10:45.408Z,2.71
2023-03-06T04:13:14.634Z,2.76
2023-03-06T04:15:44.076Z,2.73
2023-03-06T04:18:11.580Z,2.72
2023-03-06T04:20:39.455Z,2.75
2023-03-06T04:23:07.869Z,2.78
2023-03-06T04:25:34.934Z,2.74
2023-03-06T04:28:06.012Z,2.73
2023-03-06T04:30:33.563Z,2.72
2023-03-06T04:33:00.682Z,2.69
2023-03-06T04:35:27.927Z,2.65
2023-03-06T04:38:02.794Z,2.68
2023-03-06T04:40:34.721Z,2.71
2023-03-06T04:43:03.223Z,2.71
2023-03-06T04:45:32.220Z,2.66
2023-03-06T04:47:59.625Z,2.56
2023-03-06T04:50:28.297Z,2.49
2023-03-06T04:52:55.252Z,2.49
2023-03-06T04:55:22.259Z,2.51
2023-03-06T04:57:50.616Z,2.51
2023-03-06T05:00:20.953Z,2.52
2023-03-06T05:02:48.952Z,2.56
2023-03-06T05:05:17.235Z,2.61
2023-03-06T05:07:46.778Z,2.64
2023-03-06T05:10:16.463Z,2.64
2023-03-06T05:12:43.703Z,2.68
2023-03-06T05:15:15.639Z,2.69
2023-03-06T05:17:42.943Z,2.70
2023-03-06T05:20:11.468Z,2.74
2023-03-06T05:22:38.867Z,2.85
2023-03-06T05:25:10.677Z,3.13
2023-03-06T05:27:38.284Z,3.47
2023-03-06T05:30:06.586Z,3.72
2023-03-06T05:32:35.784Z,3.98
2023-03-06T05:35:03.610Z,4.27
2023-03-06T05:37:30.524Z,4.49
2023-03-06T05:39:57.531Z,4.67
2023-03-06T05:42:26.014Z,4.81
2023-03-06T05:44:54.559Z,5.02
2023-03-06T05:47:21.486Z,5.24
2023-03-06T05:49:53.502Z,5.43
2023-03-06T05:52:20.609Z,5.65
2023-03-06T05:54:51.144Z,5.82
2023-03-06T05:57:19.342Z,5.90
2023-03-06T05:59:46.523Z,5.95
2023-03-06T06:02:13.634Z,6.05
2023-03-06T06:04:40.543Z,6.09
2023-03-06T06:07:12.611Z,6.25
2023-03-06T06:09:39.932Z,6.36
2023-03-06T06:12:07.665Z,6.53
2023-03-06T06:14:35.124Z,6.61
2023-03-06T06:17:02.577Z,6.74
2023-03-06T06:19:30.543Z,6.89
2023-03-06T06:21:57.805Z,7.04
2023-03-06T06:24:26.769Z,7.11
2023-03-06T06:26:55.870Z,7.25
2023-03-06T06:29:23.106Z,7.37
2023-03-06T06:31:50.638Z,7.53
2023-03-06T06:34:18.002Z,7.32
2023-03-06T06:36:45.432Z,6.97
2023-03-06T06:39:15.479Z,6.77
2023-03-06T06:42:02.261Z,6.69
2023-03-06T06:44:32.234Z,6.73
2023-03-06T06:49:49.857Z,6.79
2023-03-06T06:52:17.359Z,6.87
2023-03-06T06:54:44.632Z,6.98
2023-03-06T06:57:13.287Z,7.10
2023-03-06T06:59:40.681Z,7.11
2023-03-06T07:02:07.829Z,7.24
2023-03-06T07:04:34.793Z,7.21
2023-03-06T07:07:01.809Z,7.07
2023-03-06T07:09:30.893Z,7.04
2023-03-06T07:11:58.208Z,6.99
2023-03-06T07:14:26.608Z,6.98
2023-03-06T07:16:53.585Z,6.94
2023-03-06T07:19:20.982Z,7.13
2023-03-06T07:21:47.882Z,7.48
2023-03-06T07:24:14.887Z,7.75
2023-03-06T07:26:46.158Z,7.68
2023-03-06T07:29:13.571Z,7.53
2023-03-06T07:31:42.093Z,7.55
2023-03-06T07:34:12.471Z,7.90
2023-03-06T07:36:40.451Z,8.27
2023-03-06T07:39:07.646Z,8.52
2023-03-06T07:41:34.993Z,8.84
2023-03-06T07:44:02.428Z,9.25
2023-03-06T07:46:29.430Z,9.56
2023-03-06T07:48:58.292Z,9.74
2023-03-06T07:51:25.575Z,9.89
2023-03-06T07:53:52.614Z,10.17
2023-03-06T07:56:19.764Z,10.43
2023-03-06T07:58:47.939Z,10.60
2023-03-06T08:01:17.253Z,10.59
2023-03-06T08:03:44.752Z,10.80
2023-03-06T08:06:14.635Z,11.06
2023-03-06T08:08:43.664Z,11.31
2023-03-06T08:11:12.206Z,11.47
2023-03-06T08:13:39.989Z,11.62
2023-03-06T08:16:07.588Z,11.83
2023-03-06T08:18:34.760Z,12.07
2023-03-06T08:21:03.039Z,12.39
2023-03-06T08:23:31.784Z,12.30
2023-03-06T08:25:58.974Z,12.36
2023-03-06T08:28:26.266Z,12.47
2023-03-06T08:30:53.988Z,12.37
2023-03-06T08:33:21.288Z,12.21
2023-03-06T08:35:48.473Z,12.12
2023-03-06T08:38:15.508Z,12.24
2023-03-06T08:40:44.113Z,12.30
2023-03-06T08:43:13.989Z,12.46
2023-03-06T08:45:41.261Z,12.67
2023-03-06T08:48:08.285Z,12.81
2023-03-06T08:50:35.263Z,12.72
2023-03-06T08:53:02.190Z,12.56
2023-03-06T08:55:29.233Z,12.53
2023-03-06T08:57:58.642Z,12.75
2023-03-06T09:00:26.106Z,13.01
2023-03-06T09:02:53.077Z,13.15
2023-03-06T09:05:20.248Z,13.20
2023-03-06T09:07:47.200Z,13.36
2023-03-06T09:10:15.705Z,13.53
2023-03-06T09:12:53.170Z,13.63
2023-03-06T09:15:23.772Z,13.77
2023-03-06T09:17:51.376Z,13.81
2023-03-06T09:20:19.215Z,13.96
2023-03-06T09:22:48.784Z,14.10
2023-03-06T09:25:22.484Z,14.17
2023-03-06T09:28:01.826Z,14.38
2023-03-06T09:30:33.688Z,14.38
2023-03-06T09:33:00.637Z,14.47
2023-03-06T09:35:27.888Z,14.61
2023-03-06T09:37:54.800Z,14.73
2023-03-06T09:40:30.531Z,14.95
2023-03-06T09:42:57.444Z,14.92
2023-03-06T09:45:24.425Z,14.93
2023-03-06T09:47:58.952Z,14.79
2023-03-06T09:50:32.628Z,14.93
2023-03-06T09:53:15.566Z,15.07
2023-03-06T09:55:46.123Z,15.34
2023-03-06T09:58:18.059Z,15.36
2023-03-06T10:00:56.312Z,15.38
2023-03-06T10:03:29.560Z,15.57
2023-03-06T10:06:02.853Z,15.62
2023-03-06T10:08:38.158Z,15.75
2023-03-06T10:11:07.292Z,15.96
2023-03-06T10:13:39.319Z,15.86
2023-03-06T10:16:33.426Z,15.72
2023-03-06T10:19:07.192Z,15.95
2023-03-06T10:21:45.362Z,16.14
2023-03-06T10:24:39.055Z,16.27
2023-03-06T10:27:16.855Z,16.23
2023-03-06T10:30:02.204Z,16.45
2023-03-06T10:32:48.311Z,16.49
2023-03-06T10:35:19.758Z,16.61
2023-03-06T10:37:49.614Z,16.66
2023-03-06T10:40:19.543Z,16.60
2023-03-06T10:42:46.461Z,16.39
2023-03-06T10:45:15.010Z,16.11
2023-03-06T10:47:43.310Z,16.11
2023-03-06T10:50:26.982Z,16.26
2023-03-06T10:53:02.588Z,16.34
2023-03-06T10:55:31.613Z,16.38
2023-03-06T10:58:16.362Z,16.59
2023-03-06T11:00:43.431Z,16.45
2023-03-06T11:03:22.940Z,16.49
2023-03-06T11:06:08.153Z,16.60
2023-03-06T11:08:35.890Z,16.32
2023-03-06T11:11:04.645Z,16.24
2023-03-06T11:13:34.586Z,16.26
2023-03-06T11:16:04.247Z,16.34
2023-03-06T11:18:35.708Z,16.65
2023-03-06T11:21:07.333Z,16.85
2023-03-06T11:23:41.413Z,16.85
2023-03-06T11:26:24.412Z,17.20
2023-03-06T11:29:09.283Z,17.42
2023-03-06T11:31:39.539Z,17.43
2023-03-06T11:34:14.713Z,17.61
2023-03-06T11:36:45.291Z,17.71
2023-03-06T11:39:22.391Z,17.35
2023-03-06T11:41:57.512Z,17.23
2023-03-06T11:44:36.973Z,16.87
2023-03-06T11:47:15.797Z,16.86
2023-03-06T11:49:46.172Z,17.01
2023-03-06T11:52:21.610Z,17.16
2023-03-06T11:54:54.041Z,17.17
2023-03-06T11:57:25.686Z,17.28
2023-03-06T12:00:07.770Z,17.63
2023-03-06T12:03:04.911Z,17.73
2023-03-06T12:05:38.032Z,17.68
2023-03-06T12:08:30.268Z,17.52
2023-03-06T12:11:02.167Z,17.48
2023-03-06T12:16:39.633Z,17.44
2023-03-06T12:19:24.482Z,17.71
2023-03-06T12:22:03.833Z,17.98
2023-03-06T12:24:47.669Z,17.88
2023-03-06T12:27:23.466Z,17.85
2023-03-06T12:30:05.885Z,17.95
2023-03-06T12:32:44.772Z,17.97
2023-03-06T12:35:28.415Z,17.95
2023-03-06T12:38:12.534Z,17.76
2023-03-06T12:41:05.431Z,17.86
2023-03-06T12:43:58.800Z,17.78
2023-03-06T12:46:27.456Z,17.57
2023-03-06T12:49:03.915Z,17.40
2023-03-06T12:51:32.382Z,17.47
2023-03-06T12:54:01.178Z,17.28
2023-03-06T12:56:31.020Z,17.02
2023-03-06T12:59:02.457Z,17.00
2023-03-06T13:01:50.202Z,16.88
2023-03-06T13:04:35.545Z,16.81
2023-03-06T13:07:27.962Z,16.78
2023-03-06T13:10:07.603Z,16.59
2023-03-06T13:12:55.843Z,16.40
2023-03-06T13:15:35.761Z,16.48
2023-03-06T13:18:33.411Z,16.58
2023-03-06T13:21:00.512Z,16.47
2023-03-06T13:23:52.250Z,16.31
2023-03-06T13:26:51.266Z,16.48
2023-03-06T13:29:51.614Z,16.55
2023-03-06T13:32:29.580Z,16.50
2023-03-06T13:34:56.900Z,16.33
2023-03-06T13:37:38.153Z,16.17
2023-03-06T13:40:31.859Z,16.08
2023-03-06T13:43:21.390Z,16.24
2023-03-06T13:45:49.839Z,16.37
2023-03-06T13:48:43.502Z,16.45
2023-03-06T13:51:22.311Z,16.42
2023-03-06T13:54:12.139Z,16.33
2023-03-06T13:57:26.820Z,16.22
2023-03-06T14:00:38.243Z,16.14
2023-03-06T14:03:42.153Z,15.98
2023-03-06T14:06:46.417Z,15.88
2023-03-06T14:09:26.315Z,15.82
2023-03-06T14:11:57.564Z,15.68
2023-03-06T14:14:32.442Z,15.66
2023-03-06T14:17:00.493Z,15.60
2023-03-06T14:19:32.853Z,15.57
2023-03-06T14:22:01.426Z,15.60
2023-03-06T14:24:33.869Z,15.52
2023-03-06T14:27:01.019Z,15.51
2023-03-06T14:29:29.705Z,15.64
2023-03-06T14:31:58.840Z,15.62
2023-03-06T14:34:30.986Z,15.60
2023-03-06T14:37:01.707Z,15.51
2023-03-06T14:39:34.844Z,15.39
2023-03-06T14:42:06.275Z,15.37
2023-03-06T14:44:33.234Z,15.39
2023-03-06T14:47:21.576Z,15.30
2023-03-06T14:50:23.219Z,15.20
2023-03-06T14:52:52.508Z,15.16
2023-03-06T14:55:20.987Z,15.13
2023-03-06T14:57:50.422Z,15.08
2023-03-06T15:00:20.768Z,15.00
2023-03-06T15:02:48.997Z,14.94
2023-03-06T15:05:22.128Z,14.85
2023-03-06T15:07:50.309Z,14.72
2023-03-06T15:10:25.547Z,14.70
2023-03-06T15:12:52.497Z,14.60
2023-03-06T15:15:29.453Z,14.54
2023-03-06T15:17:56.495Z,14.49
2023-03-06T15:20:43.638Z,14.44
2023-03-06T15:23:24.525Z,14.39
2023-03-06T15:25:54.895Z,14.31
2023-03-06T15:28:31.388Z,14.25
2023-03-06T15:31:03.553Z,14.16
2023-03-06T15:33:30.582Z,14.07
2023-03-06T15:36:01.968Z,13.98
2023-03-06T15:38:35.896Z,13.90
2023-03-06T15:41:05.098Z,13.78
2023-03-06T15:43:36.714Z,13.67
2023-03-06T15:46:06.564Z,13.54
2023-03-06T15:48:36.878Z,13.44
2023-03-06T15:51:05.624Z,13.36
2023-03-06T15:53:32.675Z,13.23
2023-03-06T15:55:59.659Z,13.10
2023-03-06T15:58:30.321Z,13.00
2023-03-06T16:00:57.272Z,12.87
2023-03-06T16:03:24.400Z,12.74
2023-03-06T16:05:51.373Z,12.63
2023-03-06T16:08:19.768Z,12.51
2023-03-06T16:10:47.872Z,12.42
2023-03-06T16:13:19.361Z,12.34
2023-03-06T16:15:49.963Z,12.23
2023-03-06T16:18:18.134Z,12.15
2023-03-06T16:20:45.289Z,12.04
2023-03-06T16:23:12.556Z,11.96
2023-03-06T16:25:42.475Z,11.87
2023-03-06T16:28:14.797Z,11.80
2023-03-06T16:30:43.788Z,11.73
2023-03-06T16:33:11.239Z,11.67
2023-03-06T16:35:38.250Z,11.55
2023-03-06T16:38:05.421Z,11.45
2023-03-06T16:40:37.645Z,11.30
2023-03-06T16:43:06.750Z,11.15
2023-03-06T16:45:36.515Z,11.02
2023-03-06T16:48:04.200Z,10.86
2023-03-06T16:50:32.982Z,10.77
2023-03-06T16:53:00.022Z,10.71
2023-03-06T16:55:27.910Z,10.62
2023-03-06T16:57:55.190Z,10.58
2023-03-06T17:00:24.909Z,10.52
2023-03-06T17:02:52.724Z,10.44
2023-03-06T17:05:20.240Z,10.39
2023-03-06T17:07:47.615Z,10.30
2023-03-06T17:10:17.257Z,10.23
2023-03-06T17:12:44.804Z,10.19
2023-03-06T17:15:12.089Z,10.12
2023-03-06T17:17:40.394Z,10.04
2023-03-06T17:20:12.748Z,9.91
2023-03-06T17:22:40.587Z,9.81
2023-03-06T17:25:09.062Z,9.69
2023-03-06T17:27:36.577Z,9.60
2023-03-06T17:30:04.554Z,9.57
2023-03-06T17:32:32.815Z,9.51
2023-03-06T17:35:01.149Z,9.43
2023-03-06T17:37:28.271Z,9.39
2023-03-06T17:39:55.229Z,9.34
2023-03-06T17:42:22.118Z,9.26
2023-03-06T17:44:49.133Z,9.23
2023-03-06T17:47:16.063Z,9.23
2023-03-06T17:49:43.062Z,9.20
2023-03-06T17:52:11.501Z,9.12
2023-03-06T17:54:38.412Z,9.06
2023-03-06T17:57:05.789Z,8.98
2023-03-06T17:59:34.423Z,8.95
2023-03-06T18:02:01.940Z,8.94
2023-03-06T18:04:29.641Z,8.91
2023-03-06T18:06:58.299Z,8.86
2023-03-06T18:09:26.691Z,8.77
2023-03-06T18:11:53.696Z,8.69
2023-03-06T18:14:20.777Z,8.62
2023-03-06T18:16:48.005Z,8.52
2023-03-06T18:19:15.751Z,8.41
2023-03-06T18:21:42.763Z,8.32
2023-03-06T18:24:11.263Z,8.25
2023-03-06T18:26:43.792Z,8.18
2023-03-06T18:29:10.746Z,8.11
2023-03-06T18:31:39.016Z,8.05
2023-03-06T18:34:08.344Z,8.01
2023-03-06T18:36:36.440Z,7.85
2023-03-06T18:39:05.191Z,7.73
2023-03-06T18:41:32.524Z,7.63
2023-03-06T18:44:02.177Z,7.56
2023-03-06T18:46:31.469Z,7.51
2023-03-06T18:48:58.712Z,7.45
2023-03-06T18:51:26.045Z,7.39
2023-03-06T18:53:53.180Z,7.35
2023-03-06T18:56:21.676Z,7.33
2023-03-06T18:58:48.900Z,7.30
2023-03-06T19:01:17.680Z,7.29
2023-03-06T19:03:44.710Z,7.26
2023-03-06T19:06:13.250Z,7.24
2023-03-06T19:08:40.717Z,7.23
2023-03-06T19:11:09.285Z,7.21
2023-03-06T19:13:36.209Z,7.23
2023-03-06T19:16:03.596Z,7.22
2023-03-06T19:18:31.933Z,7.24
2023-03-06T19:21:08.296Z,7.22
2023-03-06T19:23:35.368Z,7.21
2023-03-06T19:26:02.373Z,7.17
2023-03-06T19:28:29.430Z,7.17
2023-03-06T19:30:57.112Z,7.20
2023-03-06T19:33:24.052Z,7.23
2023-03-06T19:35:52.472Z,7.22
2023-03-06T19:38:19.369Z,7.24
2023-03-06T19:40:49.814Z,7.28
2023-03-06T19:43:16.965Z,7.28
2023-03-06T19:45:44.551Z,7.25
2023-03-06T19:48:12.553Z,7.21
2023-03-06T19:50:39.666Z,7.21
2023-03-06T19:53:08.422Z,7.17
2023-03-06T19:55:35.516Z,7.12
2023-03-06T19:58:02.563Z,7.06
2023-03-06T20:00:29.725Z,7.01
2023-03-06T20:02:57.101Z,6.95
2023-03-06T20:05:24.112Z,6.89
2023-03-06T20:07:51.169Z,6.86
2023-03-06T20:10:19.872Z,6.84
2023-03-06T20:12:46.877Z,6.81
2023-03-06T20:15:13.790Z,6.78
2023-03-06T20:17:41.009Z,6.73
2023-03-06T20:20:09.613Z,6.65
2023-03-06T20:22:36.569Z,6.62
2023-03-06T20:25:04.051Z,6.58
2023-03-06T20:27:32.405Z,6.54
2023-03-06T20:29:59.574Z,6.54
2023-03-06T20:32:26.536Z,6.50
2023-03-06T20:34:53.493Z,6.45
2023-03-06T20:37:20.842Z,6.38
2023-03-06T20:39:48.022Z,6.31
2023-03-06T20:42:15.385Z,6.26
2023-03-06T20:44:43.720Z,6.24
2023-03-06T20:47:10.628Z,6.18
2023-03-06T20:49:38.585Z,6.08
2023-03-06T20:52:05.558Z,6.03
2023-03-06T20:54:32.447Z,5.97
2023-03-06T20:56:59.660Z,5.94
2023-03-06T20:59:26.681Z,5.92
2023-03-06T21:01:55.127Z,5.90
2023-03-06T21:04:22.098Z,5.90
2023-03-06T21:06:49.177Z,5.82
2023-03-06T21:09:17.292Z,5.76
2023-03-06T21:11:44.845Z,5.71
2023-03-06T21:14:13.794Z,5.68
2023-03-06T21:16:41.461Z,5.60
2023-03-06T21:19:10.179Z,5.55
2023-03-06T21:21:37.187Z,5.45
2023-03-06T21:24:04.383Z,5.42
2023-03-06T21:26:33.853Z,5.41
2023-03-06T21:29:01.817Z,5.38
2023-03-06T21:31:29.781Z,5.37
2023-03-06T21:33:58.655Z,5.36
2023-03-06T21:36:27.483Z,5.35
2023-03-06T21:38:55.078Z,5.31
2023-03-06T21:41:24.841Z,5.26
2023-03-06T21:43:54.368Z,5.21
2023-03-06T21:46:21.272Z,5.16
2023-03-06T21:48:48.205Z,5.15
2023-03-06T21:51:21.083Z,5.13
2023-03-06T21:53:50.180Z,5.11
2023-03-06T21:56:19.340Z,5.14
2023-03-06T21:58:46.631Z,5.17
2023-03-06T22:01:16.888Z,5.20
2023-03-06T22:03:44.142Z,5.20
2023-03-06T22:06:13.142Z,5.25
2023-03-06T22:08:40.982Z,5.26
2023-03-06T22:11:11.515Z,5.26
2023-03-06T22:13:39.113Z,5.25
2023-03-06T22:16:07.249Z,5.22
2023-03-06T22:18:35.218Z,5.21
2023-03-06T22:21:07.175Z,5.14
2023-03-06T22:23:34.223Z,5.10
2023-03-06T22:26:03.582Z,5.08
2023-03-06T22:28:32.462Z,5.07
2023-03-06T22:31:04.585Z,5.06
2023-03-06T22:33:31.496Z,5.05
2023-03-06T22:36:02.663Z,5.03
2023-03-06T22:38:29.641Z,5.00
2023-03-06T22:40:57.012Z,4.97
2023-03-06T22:43:24.100Z,4.95
2023-03-06T22:45:52.912Z,4.89
2023-03-06T22:48:20.270Z,4.84
2023-03-06T22:50:47.632Z,4.78
2023-03-06T22:53:14.549Z,4.73
2023-03-06T22:55:41.431Z,4.69
2023-03-06T22:58:08.481Z,4.66
2023-03-06T23:00:35.459Z,4.62
2023-03-06T23:03:04.164Z,4.61
2023-03-06T23:05:31.110Z,4.58
2023-03-06T23:07:58.256Z,4.55
2023-03-06T23:10:25.360Z,4.50
2023-03-06T23:13:10.616Z,4.46
2023-03-06T23:15:56.068Z,4.39
2023-03-06T23:18:43.083Z,4.36
2023-03-06T23:21:28.443Z,4.32
2023-03-06T23:24:13.821Z,4.25
2023-03-06T23:26:40.792Z,4.21
2023-03-06T23:29:07.741Z,4.18
2023-03-06T23:31:34.689Z,4.13
2023-03-06T23:34:03.903Z,4.09
2023-03-06T23:36:31.233Z,4.06
2023-03-06T23:38:58.559Z,4.05
2023-03-06T23:41:25.674Z,4.02
2023-03-06T23:43:55.199Z,3.98
2023-03-06T23:46:22.610Z,3.96
2023-03-06T23:48:49.658Z,3.94
2023-03-06T23:51:20.236Z,3.93
2023-03-06T23:53:48.185Z,3.91
2023-03-06T23:56:15.437Z,3.87
2023-03-06T23:58:42.648Z,3.88
